Latest Weather Observations for Urandangi

IDQ60801

Issued at 9:02 pm EST Monday 2 March 2015 (issued every 30 minutes, with the page automatically refreshed every 10 minutes)

About weather observations | Map of weather stations | Latest weather observations for QLD | Other Formats
Station Details ID: 037058 Name: URANDANGI AERODROME Lat: -21.60 Lon: 138.37 Height: 178.6 m
Data from the previous 72 hours. | See also: Recent months at Urandangi
Date/Time
EST
Temp
°C
App
Temp
°C
Dew
Point
Rel
Hum
%
Delta-T
°C
Wind Press
QNH
hPa
Press
MSL
hPa
Rain
since 9 am
mm
Dir
 
Spd
km/h
Gust
km/h
Spd
kts
Gust
kts
02/09:00pm 34.0 32.7 11.2 25 13.5 N 9 9 5 5 1005.2 1004.0 0.0
02/08:30pm 34.8 33.9 11.2 24 14.0 N 7 9 4 5 1004.8 1003.6 0.0
02/08:00pm 36.3 35.4 10.5 21 15.3 N 6 6 3 3 1004.5 1003.3 0.0
02/07:30pm 37.6 37.9 10.8 20 16.0 CALM 0 0 0 0 1004.1 1002.9 0.0
02/07:00pm 39.3 39.5 10.6 18 17.2 CALM 0 0 0 0 1003.9 1002.7 0.0
02/06:30pm 40.3 40.5 10.6 17 17.8 CALM 0 4 0 2 1003.8 1002.6 0.0
02/06:00pm 40.4 40.2 10.6 17 18.0 ESE 2 7 1 4 1003.8 1002.6 0.0
02/05:30pm 40.1 39.5 10.4 17 17.8 SSW 4 7 2 4 1003.9 1002.7 0.0
02/05:00pm 40.1 38.9 9.5 16 18.1 WSW 6 9 3 5 1004.0 1002.8 0.0
02/04:30pm 40.4 39.5 10.6 17 17.9 WNW 6 11 3 6 1004.2 1003.0 0.0
02/04:00pm 40.4 39.9 10.6 17 17.9 E 4 7 2 4 1004.4 1003.2 0.0
02/03:30pm 40.2 39.9 11.3 18 17.5 WNW 4 9 2 5 1004.5 1003.3 0.0
02/03:00pm 39.7 38.9 10.9 18 17.4 N 6 13 3 7 1004.9 1003.7 0.0
02/02:30pm 39.7 38.4 12.5 20 16.7 N 11 19 6 10 1005.1 1003.9 0.0
02/02:00pm 39.0 38.0 13.4 22 15.9 NW 11 17 6 9 1005.4 1004.3 0.0
02/01:30pm 38.7 38.7 15.1 24 15.0 NW 9 20 5 11 1005.7 1004.6 0.0
02/01:00pm 38.0 38.8 16.3 27 14.0 NW 7 15 4 8 1006.2 1005.0 0.0
02/12:30pm 37.5 38.3 16.4 28 13.6 W 7 13 4 7 1006.6 1005.4 0.0
02/12:00pm 37.5 39.1 17.0 30 13.3 NNW 4 7 2 4 1007.1 1005.9 0.0
02/11:30am 36.2 38.6 18.7 35 11.6 ESE 4 13 2 7 1007.5 1006.3 0.0
02/11:00am 34.6 36.4 18.2 37 10.8 SE 6 9 3 5 1007.7 1006.5 0.0
02/10:30am 33.4 35.7 19.5 44 9.2 NE 6 11 3 6 1008.1 1006.9 0.0
02/10:00am 32.7 35.6 19.9 46 8.5 E 4 7 2 4 1008.0 1006.8 0.0
02/09:30am 31.5 34.9 20.1 50 7.6 NNE 2 6 1 3 1007.9 1006.7 0.0
02/09:00am 29.9 33.1 20.5 57 6.3 NNW 4 6 2 3 1007.8 1006.6 0.0
02/08:30am 28.0 32.5 21.5 67 4.4 CALM 0 0 0 0 1007.5 1006.3 0.0
02/08:00am 26.6 30.8 21.8 75 3.2 N 2 4 1 2 1007.5 1006.3 0.0
02/07:30am 25.2 29.2 20.5 75 3.1 CALM 0 0 0 0 1007.4 1006.2 0.0
02/07:00am 25.5 29.3 21.0 76 3.0 N 2 4 1 2 1007.1 1005.9 0.0
02/06:30am 25.9 28.8 21.1 75 3.2 N 7 13 4 7 1006.9 1005.7 0.0
02/06:00am 25.9 28.1 20.5 72 3.6 NNE 9 13 5 7 1006.8 1005.6 0.0
02/05:30am 26.0 28.6 20.1 70 3.9 N 6 9 3 5 1006.7 1005.5 0.0
02/05:00am 26.1 28.8 20.2 70 3.9 N 6 7 3 4 1006.5 1005.3 0.0
02/04:30am 26.4 28.6 20.5 70 3.9 NNE 9 13 5 7 1006.3 1005.1 0.0
02/04:00am 26.1 28.7 20.4 71 3.8 NW 7 11 4 6 1005.9 1004.8 0.0
02/03:30am 26.9 29.4 21.0 70 3.9 NNW 9 13 5 7 1005.9 1004.8 0.0
02/03:00am 26.6 28.8 21.1 72 3.7 NNW 11 13 6 7 1005.8 1004.7 0.0
02/02:30am 26.1 28.8 20.7 72 3.6 NNW 7 9 4 5 1006.2 1005.0 0.0
02/02:00am 26.0 29.1 19.4 67 4.3 W 2 7 1 4 1006.7 1005.5 0.0
02/01:30am 26.0 29.3 19.2 66 4.4 CALM 0 0 0 0 1006.9 1005.7 0.0
02/01:00am 25.6 28.8 18.8 66 4.4 CALM 0 0 0 0 1007.0 1005.8 0.0
02/12:30am 25.8 28.2 18.7 65 4.6 W 4 4 2 2 1007.0 1005.8 0.0
02/12:00am 27.1 30.8 20.0 65 4.7 CALM 0 0 0 0 1006.8 1005.6 0.0
 
Date/Time
EST
Temp
°C
App
Temp
°C
Dew
Point
Rel
Hum
%
Delta-T
°C
Wind Press
QNH
hPa
Press
MSL
hPa
Rain
since 9 am
mm
Dir
 
Spd
km/h
Gust
km/h
Spd
kts
Gust
kts
01/11:30pm 27.4 31.0 19.7 63 5.0 CALM 0 0 0 0 1006.7 1005.5 0.0
01/11:00pm 27.8 31.3 20.4 64 4.9 W 2 6 1 3 1006.7 1005.5 0.0
01/10:30pm 28.8 31.4 20.5 61 5.5 NW 7 11 4 6 1006.8 1005.6 0.0
01/10:00pm 29.4 30.9 20.5 58 5.9 NNW 13 17 7 9 1006.8 1005.6 0.0
01/09:30pm 29.5 31.6 20.1 57 6.2 N 9 13 5 7 1006.7 1005.5 0.0
01/09:00pm 29.7 32.1 20.0 56 6.4 NNW 7 9 4 5 1006.2 1005.0 0.0
01/08:30pm 30.1 32.0 19.8 54 6.8 WNW 9 15 5 8 1005.7 1004.6 0.0
01/08:00pm 30.4 32.0 19.1 50 7.4 NW 9 15 5 8 1005.5 1004.4 0.0
01/07:30pm 30.6 32.0 19.6 51 7.3 NW 11 15 6 8 1005.0 1003.8 0.0
01/07:00pm 30.8 31.5 20.4 54 7.0 NNW 17 22 9 12 1004.8 1003.6 0.0
01/06:30pm 30.8 31.2 20.7 55 6.8 NNW 19 22 10 12 1004.6 1003.4 0.0
01/06:00pm 30.6 30.8 21.4 58 6.2 NNW 22 33 12 18 1004.7 1003.5 0.0
01/05:30pm 30.0 28.7 21.4 60 5.8 N 30 37 16 20 1004.5 1003.3 0.0
01/05:00pm 31.6 30.6 22.0 56 6.6 N 30 39 16 21 1004.1 1002.9 0.0
01/04:30pm 31.6 29.3 22.0 56 6.6 N 37 46 20 25 1004.1 1002.9 0.0
01/04:16pm 35.0 32.5 20.2 42 10.0 N 33 56 18 30 1004.4 1003.2 0.0
01/04:00pm 35.5 34.2 20.6 41 10.1 N 28 35 15 19 1004.1 1002.9 0.0
01/03:30pm 38.2 36.8 19.6 34 12.5 N 26 37 14 20 1003.5 1002.3 0.0
01/03:00pm 41.1 39.5 12.9 19 17.6 S 13 20 7 11 1003.7 1002.5 0.0
01/02:30pm 40.0 41.4 17.4 26 14.9 NW 6 9 3 5 1004.0 1002.8 0.0
01/02:00pm 39.5 41.0 18.1 28 14.2 NW 7 17 4 9 1004.7 1003.5 0.0
01/01:30pm 39.9 42.0 20.1 32 13.5 NW 9 19 5 10 1005.3 1004.1 0.0
01/01:00pm 38.5 40.9 20.8 36 12.1 W 9 19 5 10 1005.9 1004.8 0.0
01/12:30pm 38.1 39.8 20.9 37 11.8 NNW 13 22 7 12 1006.5 1005.3 0.0
01/12:00pm 36.8 38.0 20.6 39 11.0 NW 15 24 8 13 1006.8 1005.6 0.0
01/11:30am 36.9 37.9 21.1 40 10.8 NNW 17 28 9 15 1007.0 1005.8 0.0
01/11:00am 36.2 37.5 21.6 42 10.0 NNW 17 28 9 15 1007.3 1006.1 0.0
01/10:30am 35.0 35.7 21.6 45 9.2 NNW 20 32 11 17 1007.4 1006.2 0.0
01/10:00am 34.4 34.6 21.4 46 8.9 NNW 22 32 12 17 1007.3 1006.1 0.0
01/09:30am 34.6 34.9 21.6 46 8.9 NNW 22 30 12 16 1007.2 1005.8 0.0
01/09:00am 33.3 33.4 21.8 51 7.9 N 24 33 13 18 1007.0 1005.6 0.0
01/08:30am 32.4 32.7 21.6 53 7.4 NNW 22 30 12 16 1006.7 1005.3 0.0
01/08:00am 31.5 32.8 21.7 56 6.7 N 17 22 9 12 1006.4 1005.0 0.0
01/07:30am 30.5 32.4 21.3 58 6.2 N 13 17 7 9 1005.8 1004.5 0.0
01/07:00am 29.5 31.9 20.9 60 5.8 N 9 13 5 7 1005.6 1004.3 0.0
01/06:30am 29.2 31.6 20.9 61 5.6 N 9 11 5 6 1004.9 1003.6 0.0
01/06:00am 29.4 31.8 20.8 60 5.8 N 9 13 5 7 1004.9 1003.6 0.0
01/05:30am 28.8 31.5 21.3 64 5.0 NNE 9 11 5 6 1004.8 1003.5 0.0
01/05:00am 27.0 29.9 19.9 65 4.7 NNE 4 4 2 2 1004.5 1003.2 0.0
01/04:30am 27.5 30.7 19.8 63 5.0 NNE 2 2 1 1 1004.3 1003.0 0.0
01/04:00am 28.8 31.8 20.8 62 5.4 NNE 6 7 3 4 1004.0 1002.7 0.0
01/03:30am 28.6 31.3 20.6 62 5.3 NE 7 9 4 5 1003.9 1002.6 0.0
01/03:00am 28.2 31.0 19.7 60 5.6 E 4 6 2 3 1004.0 1002.7 0.0
01/02:30am 28.9 31.5 20.1 59 5.8 E 6 7 3 4 1004.1 1002.8 0.0
01/02:00am 28.6 30.9 19.5 58 6.0 NE 6 6 3 3 1004.2 1002.9 0.0
01/01:30am 28.9 31.1 19.2 55 6.3 NE 6 6 3 3 1004.5 1003.2 0.0
01/01:00am 30.7 33.9 20.6 54 6.8 NNW 4 9 2 5 1004.4 1003.1 0.0
01/12:30am 31.8 34.1 20.7 51 7.5 NNW 9 13 5 7 1004.7 1003.4 0.0
01/12:00am 31.3 34.4 19.6 49 7.8 NNW 2 6 1 3 1004.8 1003.5 0.0
 
Date/Time
EST
Temp
°C
App
Temp
°C
Dew
Point
Rel
Hum
%
Delta-T
°C
Wind Press
QNH
hPa
Press
MSL
hPa
Rain
since 9 am
mm
Dir
 
Spd
km/h
Gust
km/h
Spd
kts
Gust
kts
28/11:30pm 32.7 34.2 20.6 49 8.1 N 13 17 7 9 1004.6 1003.3 0.0
28/11:00pm 32.5 33.9 20.4 49 8.1 N 13 17 7 9 1004.5 1003.2 0.0
28/10:30pm 32.7 35.2 20.2 47 8.4 NNE 7 11 4 6 1004.5 1003.2 0.0
28/10:00pm 33.1 34.5 20.3 47 8.6 N 13 17 7 9 1004.3 1003.0 0.0
28/09:30pm 33.2 33.9 20.4 47 8.6 NNE 17 24 9 13 1004.1 1002.8 0.0
28/09:00pm 33.6 34.5 20.0 44 9.1 NNE 15 20 8 11 1003.9 1002.6 0.0
28/08:30pm 34.1 34.4 20.5 45 9.2 NNE 19 24 10 13 1003.4 1002.1 0.0
28/08:00pm 34.3 34.6 20.7 45 9.2 NE 20 28 11 15 1003.0 1001.7 0.0
28/07:30pm 35.7 35.2 20.0 39 10.6 NE 22 30 12 16 1002.8 1001.4 0.0
28/07:00pm 37.8 39.0 18.3 32 12.9 ENE 9 28 5 15 1002.2 1000.8 0.0
28/06:30pm 41.1 40.0 14.4 21 16.9 WSW 13 20 7 11 1001.3 999.9 0.0
28/06:00pm 41.1 40.8 14.4 21 17.0 WSW 9 19 5 10 1001.4 1000.0 0.0
28/05:30pm 41.9 41.0 15.8 22 16.9 WSW 15 30 8 16 1001.3 999.9 0.0
28/05:00pm 41.7 41.1 15.6 21 16.9 W 13 28 7 15 1001.2 999.8 0.0
28/04:30pm 40.8 40.3 16.9 25 15.6 WSW 15 30 8 16 1001.7 1000.3 0.0
28/04:00pm 41.5 40.9 17.5 25 15.9 W 17 24 9 13 1002.0 1000.6 0.0
28/03:30pm 41.8 40.7 17.7 24 16.0 WNW 20 30 11 16 1002.3 1000.9 0.0
28/03:00pm 40.9 39.6 18.2 26 15.2 WNW 22 32 12 17 1002.7 1001.3 0.0
28/02:30pm 41.4 41.1 19.2 27 15.0 WNW 19 33 10 18 1003.0 1001.7 0.0
28/02:00pm 40.2 40.2 19.8 30 13.9 WNW 19 28 10 15 1003.5 1002.2 0.0
28/01:30pm 39.3 39.6 20.5 33 12.8 WNW 19 33 10 18 1004.0 1002.7 0.0
28/01:00pm 38.7 38.7 20.9 35 12.2 WNW 22 35 12 19 1004.5 1003.2 0.0
28/12:30pm 37.8 37.4 21.0 37 11.5 WNW 24 39 13 21 1005.0 1003.7 0.0
28/12:00pm 37.8 38.0 21.4 38 11.3 WNW 22 37 12 20 1005.5 1004.2 0.0
28/11:30am 36.6 36.7 21.2 40 10.5 NW 22 35 12 19 1005.9 1004.6 0.0
28/11:00am 36.0 35.7 21.1 42 10.2 WNW 24 35 13 19 1006.5 1005.1 0.0
28/10:30am 35.4 35.7 21.6 44 9.5 NW 22 30 12 16 1006.6 1005.2 0.0
28/10:00am 34.1 33.9 21.2 47 8.8 NW 24 32 13 17 1006.9 1005.5 0.0
28/09:30am 33.4 33.0 20.9 48 8.5 NNW 24 33 13 18 1006.6 1005.2 0.0
28/09:00am 32.8 33.4 21.3 50 7.8 NNW 20 28 11 15 1006.5 1005.1 0.0
28/08:30am 31.3 32.8 21.2 55 6.8 NNW 15 22 8 12 1006.4 1005.0 0.0
28/08:00am 29.9 31.9 20.7 57 6.2 N 11 15 6 8 1006.3 1004.9 0.0
28/07:30am 28.5 31.3 19.7 59 5.8 N 4 6 2 3 1005.9 1004.6 0.0
28/07:00am 27.1 29.5 19.7 64 4.9 NNE 6 6 3 3 1005.6 1004.3 0.0
28/06:30am 27.1 29.3 19.7 64 4.8 N 7 9 4 5 1005.4 1004.1 0.0
28/06:00am 27.7 29.6 19.8 62 5.2 N 9 13 5 7 1005.3 1004.0 0.0
28/05:30am 27.9 29.6 20.2 63 5.1 N 11 13 6 7 1005.2 1003.9 0.0
28/05:00am 27.5 29.8 20.6 66 4.6 N 9 11 5 6 1005.1 1003.8 0.0
28/04:30am 27.3 29.9 20.4 66 4.6 NW 7 9 4 5 1005.0 1003.7 0.0
28/04:00am 27.6 30.3 20.2 64 4.9 NW 6 7 3 4 1004.7 1003.4 0.0
28/03:30am 28.0 31.1 20.3 63 5.1 NW 4 6 2 3 1004.9 1003.6 0.0
28/03:00am 28.4 30.6 20.4 62 5.3 NW 9 13 5 7 1004.8 1003.5 0.0
28/02:30am 28.5 31.3 20.8 63 5.1 NW 7 11 4 6 1005.1 1003.8 0.0
28/02:00am 28.3 31.6 20.8 63 5.0 NW 4 7 2 4 1005.4 1004.1 0.0
28/01:30am 29.1 32.3 21.6 64 5.1 NW 7 9 4 5 1005.6 1004.3 0.0
28/01:00am 29.4 31.8 21.6 63 5.3 N 11 13 6 7 1005.6 1004.3 0.0
28/12:30am 29.8 31.8 21.5 61 5.6 N 13 19 7 10 1005.7 1004.4 0.0
28/12:00am 30.2 32.1 21.3 59 6.0 N 13 17 7 9 1005.8 1004.5 0.0
 
Date/Time
EST
Temp
°C
App
Temp
°C
Dew
Point
Rel
Hum
%
Delta-T
°C
Wind Press
QNH
hPa
Press
MSL
hPa
Rain
since 9 am
mm
Dir
 
Spd
km/h
Gust
km/h
Spd
kts
Gust
kts
27/11:30pm 30.6 31.9 20.8 56 6.6 N 15 24 8 13 1005.9 1004.6 0.0
27/11:00pm 31.1 32.3 20.7 54 7.0 N 15 22 8 12 1005.8 1004.5 0.0
27/10:30pm 31.5 31.5 20.1 50 7.6 N 20 28 11 15 1005.7 1004.4 0.0
27/10:00pm 32.4 31.6 19.3 46 8.7 N 22 30 12 16 1005.9 1004.6 0.0
27/09:30pm 33.1 33.0 19.9 45 8.8 NNW 20 30 11 16 1005.4 1004.1 0.0

Other Formats:

Comma delimited format used in spreadsheet applications
http://www.bom.gov.au/fwo/IDQ60801/IDQ60801.94344.axf

JavaScript Object Notation format (JSON) in row-major order
http://www.bom.gov.au/fwo/IDQ60801/IDQ60801.94344.json